Decoded Metar for ETHN (NIEDERSTETTEN in GERMANY) (IATA:N/A) | Meteo·Mobile Aviation Weather
aviador You're here:

ETHN Decoded Metar

NIEDERSTETTEN in GERMANY
Report Time2018-10-20 06:20:00
UTC Time2018-10-20 07:31:05
Flight Rules Old
Wind130° at 01 kt
W.Decomp.*RWY 07: 0.5 kt HW 0.8 kt RCW
W.Rank130° ranks 14
Current wind is below 130° avg. (5.7)
Visibility3500 m
Phenomena:Mist
Clouds:Broken 037 Hf
Expected CloudBase > 400 ft AGL from Temp-Dew spread
Ceiling3,700 ft
Temp09°C (ISA -3)
Dew Point08°C (94% RH)
AAT8.2°C
QNH1027 hPa
Density Alt883 ft
Elevation1,552 ft
Report Wrong Elevation
Raw Report
METAR ETHN 200620Z 13001KT 3500 BR BKN037 09/08 Q1027 YLO=

Extra information for ETHN:More info

Metar Taf Metar & Taf Last 4 Metars F.Rules Stats Wind Profile Meteogram Temp Stats Airport Information Weather charts Add Link Nearby VenuesMetar ALERT Operation Metar Decoded Social comments